Latest Weather Observations for Lord Howe Island

IDN60801

Issued at 3:02 am EST Friday 4 September 2015 (issued every 30 minutes, with the page automatically refreshed every 10 minutes)

About weather observations | Map of weather stations | Latest weather observations for NSW | Other Formats
Station Details ID: 200839 Name: LORD HOWE ISLAND AERO Lat: -31.54 Lon: 159.08 Height: 5.0 m
Data from the previous 72 hours. | See also: Recent months at Lord Howe Island
Date/Time
EST
Temp
°C
App
Temp
°C
Dew
Point
Rel
Hum
%
Delta-T
°C
Wind Press
QNH
hPa
Press
MSL
hPa
Rain
since 9 am
mm
Dir
 
Spd
km/h
Gust
km/h
Spd
kts
Gust
kts
04/03:00am 17.6 10.8 11.8 69 3.2 WSW 39 46 21 25 1005.8 - 22.4
04/02:30am 17.4 10.2 11.9 70 3.0 WSW 41 48 22 26 1005.7 1005.7 22.4
04/02:01am 16.4 9.2 13.2 81 1.8 W 43 56 23 30 1005.8 - 22.4
04/02:00am 16.4 9.2 13.0 80 1.9 W 43 56 23 30 1005.8 - 22.4
04/01:47am 15.4 10.9 12.5 83 1.6 WSW 28 48 15 26 1006.0 - 22.4
04/01:40am 14.6 10.0 12.2 85 1.3 SW 28 39 15 21 1006.4 - 21.0
04/01:32am 15.9 9.8 13.0 83 1.6 W 37 44 20 24 1006.3 - 15.2
04/01:30am 16.5 10.4 12.9 79 2.0 WSW 37 44 20 24 1006.2 - 14.4
04/01:00am 17.2 10.2 11.1 67 3.3 W 39 50 21 27 1005.8 - 14.4
04/12:30am 16.4 9.1 10.2 66 3.3 WSW 39 48 21 26 1005.8 - 14.4
04/12:00am 17.0 9.6 11.3 69 3.1 W 41 52 22 28 1006.0 - 14.4
 
Date/Time
EST
Temp
°C
App
Temp
°C
Dew
Point
Rel
Hum
%
Delta-T
°C
Wind Press
QNH
hPa
Press
MSL
hPa
Rain
since 9 am
mm
Dir
 
Spd
km/h
Gust
km/h
Spd
kts
Gust
kts
03/11:30pm 17.3 9.6 10.1 62 3.8 W 41 50 22 27 1006.1 1006.1 14.4
03/11:00pm 16.8 10.9 10.4 66 3.4 WSW 32 37 17 20 1005.9 - 14.4
03/10:30pm 16.3 11.8 10.0 66 3.3 WSW 24 30 13 16 1005.7 - 14.4
03/10:00pm 15.9 12.5 10.6 71 2.8 SW 19 32 10 17 1005.1 - 14.4
03/09:30pm 16.3 12.8 12.1 76 2.3 SW 22 32 12 17 1005.9 - 14.4
03/09:00pm 15.8 13.4 12.5 81 1.8 SSW 17 28 9 15 1006.2 - 14.4
03/08:30pm 15.4 11.4 13.1 86 1.3 SW 26 46 14 25 1006.1 1006.1 14.4
03/08:21pm 14.7 10.4 11.9 83 1.5 SW 26 46 14 25 1006.3 - 14.4
03/08:00pm 13.8 7.5 12.3 91 0.8 SW 37 59 20 32 1006.2 - 13.8
03/07:58pm 14.1 7.1 12.6 91 0.8 SW 41 59 22 32 1006.2 - 13.0
03/07:57pm 14.2 6.8 12.6 90 0.9 SW 43 59 23 32 1006.1 - 12.4
03/07:56pm 14.9 7.3 12.3 84 1.4 W 44 67 24 36 1006.1 - 11.2
03/07:55pm 15.4 8.2 13.2 87 1.2 W 43 67 23 36 1006.3 - 10.2
03/07:30pm 18.0 15.6 15.5 85 1.5 NNW 22 43 12 23 1005.5 - 9.6
03/07:22pm 18.0 15.5 15.1 83 1.7 NNW 22 39 12 21 1004.9 - 9.6
03/07:19pm 18.0 15.1 15.1 83 1.7 NNW 24 39 13 21 1005.1 - 9.6
03/07:00pm 18.1 16.0 15.2 83 1.7 N 20 35 11 19 1005.2 - 9.6
03/06:44pm 18.2 16.3 15.7 85 1.5 N 20 33 11 18 1005.8 - 9.6
03/06:30pm 18.0 15.3 15.6 86 1.4 N 24 44 13 24 1006.1 - 9.6
03/06:00pm 17.8 15.7 14.7 82 1.8 NNW 19 35 10 19 1006.0 - 9.6
03/05:30pm 17.8 15.1 14.7 82 1.8 NNW 22 44 12 24 1005.7 1005.7 9.6
03/05:00pm 17.6 15.3 14.7 83 1.7 N 20 39 11 21 1006.0 - 9.6
03/04:39pm 17.3 14.4 14.0 81 1.9 N 22 43 12 23 1006.3 - 9.6
03/04:30pm 16.9 13.8 13.5 80 1.9 N 22 56 12 30 1006.6 - 9.6
03/04:20pm 17.3 13.1 13.6 79 2.1 NNE 28 39 15 21 1007.0 - 8.8
03/04:00pm 17.4 13.9 13.5 78 2.2 N 24 56 13 30 1007.2 - 7.8
03/03:39pm 17.8 14.2 13.2 74 2.6 NNE 24 44 13 24 1006.8 - 7.6
03/03:30pm 17.8 15.7 15.2 85 1.5 NNE 20 39 11 21 1007.1 - 7.6
03/03:18pm 17.8 15.7 14.7 82 1.8 NNE 19 43 10 23 1007.6 - 7.2
03/03:00pm 17.6 14.2 14.8 84 1.6 NNE 26 44 14 24 1007.5 - 6.6
03/02:30pm 18.2 16.7 14.2 77 2.3 NNE 15 26 8 14 1008.3 1008.3 5.8
03/02:00pm 19.2 16.4 14.4 74 2.8 N 22 50 12 27 1008.0 - 4.6
03/01:30pm 18.5 15.3 12.0 66 3.6 NNE 20 48 11 26 1008.4 - 4.6
03/01:00pm 18.4 15.4 12.7 69 3.2 NNE 20 35 11 19 1009.2 - 4.6
03/12:30pm 18.3 15.4 12.2 67 3.4 NNE 19 33 10 18 1010.3 - 4.2
03/12:00pm 17.5 13.7 11.2 66 3.4 NNW 22 39 12 21 1011.6 - 4.2
03/11:30am 16.9 13.2 11.6 71 2.9 NNW 22 33 12 18 1012.5 1012.5 3.8
03/11:24am 16.9 14.0 14.1 83 1.6 WNW 22 35 12 19 1012.9 - 3.8
03/11:12am 18.3 17.8 15.8 85 1.5 NNE 13 26 7 14 1012.5 - 2.0
03/11:00am 18.3 17.2 16.3 88 1.2 NNE 17 24 9 13 1012.9 - 1.6
03/10:47am 18.5 15.9 16.0 85 1.5 N 24 35 13 19 1013.5 - 0.6
03/10:30am 18.6 17.0 16.1 85 1.5 N 19 39 10 21 1013.7 - 0.4
03/10:17am 19.1 16.6 15.2 78 2.3 N 22 32 12 17 1013.9 - 0.0
03/10:00am 19.0 17.7 14.9 77 2.4 N 15 24 8 13 1014.3 - 0.0
03/09:35am 19.3 14.7 14.7 74 2.7 NNE 32 50 17 27 1013.7 - 0.0
03/09:30am 19.1 14.3 14.6 75 2.6 NNE 33 43 18 23 1013.6 - 0.0
03/09:00am 19.1 14.6 13.7 71 3.1 NNE 30 46 16 25 1013.8 - 0.0
03/08:30am 19.1 14.3 13.9 72 3.0 NNE 32 43 17 23 1014.0 1014.0 0.0
03/08:00am 18.5 13.7 13.0 70 3.1 NNE 30 37 16 20 1014.5 - 0.0
03/07:30am 18.2 14.3 12.2 68 3.3 NNE 24 35 13 19 1014.7 - 0.0
03/07:00am 18.0 13.6 11.6 66 3.5 NNE 26 43 14 23 1015.0 - 0.0
03/06:30am 17.8 13.4 11.8 68 3.3 NNE 26 39 14 21 1014.6 - 0.0
03/06:00am 17.5 13.4 11.6 68 3.2 NNE 24 37 13 20 1014.6 - 0.0
03/05:30am 17.5 14.0 11.0 65 3.5 NNE 20 32 11 17 1014.7 1014.7 0.0
03/05:00am 17.0 14.4 10.8 67 3.3 NNE 15 26 8 14 1015.0 - 0.0
03/04:30am 17.1 14.8 10.5 65 3.5 N 13 20 7 11 1015.4 - 0.0
03/04:00am 17.0 14.8 10.8 67 3.3 N 13 22 7 12 1015.6 - 0.0
03/03:30am 16.7 14.9 10.7 67 3.2 N 11 17 6 9 1015.7 - 0.0
03/03:00am 16.2 14.6 10.3 68 3.1 NNE 9 13 5 7 1015.6 - 0.0
03/02:30am 14.3 12.8 10.5 78 2.0 N 9 15 5 8 1015.8 1015.8 0.0
03/02:00am 12.1 11.2 10.6 90 0.8 N 6 9 3 5 1016.3 - 0.0
03/01:30am 10.8 10.1 10.2 96 0.3 N 4 7 2 4 1016.6 - 0.0
03/01:00am 10.6 10.5 9.6 93 0.5 CALM 0 0 0 0 1016.6 - 0.0
03/12:30am 10.8 10.7 9.4 91 0.7 CALM 0 0 0 0 1017.0 - 0.0
03/12:00am 11.6 11.8 10.4 92 0.6 CALM 0 0 0 0 1016.9 - 0.0
 
Date/Time
EST
Temp
°C
App
Temp
°C
Dew
Point
Rel
Hum
%
Delta-T
°C
Wind Press
QNH
hPa
Press
MSL
hPa
Rain
since 9 am
mm
Dir
 
Spd
km/h
Gust
km/h
Spd
kts
Gust
kts
02/11:30pm 11.5 11.6 10.1 91 0.7 CALM 0 0 0 0 1017.4 1017.4 0.0
02/11:00pm 12.1 12.3 10.5 90 0.8 CALM 0 0 0 0 1017.6 - 0.0
02/10:30pm 12.7 13.1 11.2 91 0.8 CALM 0 0 0 0 1017.7 - 0.0
02/10:00pm 12.6 12.9 10.9 89 0.9 CALM 0 0 0 0 1017.9 - 0.0
02/09:30pm 13.4 13.8 11.1 86 1.2 CALM 0 0 0 0 1018.0 - 0.0
02/09:00pm 14.4 14.5 11.6 83 1.5 SSE 2 6 1 3 1018.0 - 0.0
02/08:30pm 16.2 14.9 11.4 73 2.6 SW 9 13 5 7 1018.0 1018.0 0.0
02/08:00pm 16.8 15.1 11.2 69 3.0 SW 11 15 6 8 1018.1 - 0.0
02/07:30pm 16.9 15.8 11.8 72 2.8 SW 9 15 5 8 1017.9 - 0.0
02/07:00pm 16.9 14.8 11.3 69 3.0 WSW 13 19 7 10 1017.7 - 0.0
02/06:30pm 17.0 15.2 11.0 68 3.2 SW 11 17 6 9 1017.4 - 0.0
02/06:00pm 17.2 14.8 11.3 68 3.2 SW 15 20 8 11 1017.4 - 0.0
02/05:30pm 17.2 14.8 11.5 69 3.1 SW 15 20 8 11 1017.0 1017.0 0.0
02/05:00pm 17.4 14.2 11.1 66 3.4 WSW 19 24 10 13 1016.9 - 0.0
02/04:30pm 17.4 14.6 11.5 68 3.2 SW 17 22 9 12 1016.5 - 0.0
02/04:00pm 18.1 15.2 12.3 69 3.2 WSW 19 26 10 14 1016.5 - 0.0
02/03:30pm 17.9 14.7 11.3 65 3.6 SW 19 26 10 14 1016.1 - 0.0
02/03:00pm 18.6 14.7 12.1 66 3.6 WSW 24 33 13 18 1016.2 - 0.0
02/02:30pm 18.3 15.0 11.5 64 3.7 WSW 20 32 11 17 1016.2 1016.2 0.0
02/02:00pm 18.3 14.2 11.5 64 3.7 WSW 24 33 13 18 1016.1 - 0.0
02/01:30pm 18.7 15.0 11.4 62 4.0 SW 22 35 12 19 1016.3 - 0.0
02/01:00pm 18.9 15.2 12.6 67 3.5 WSW 24 33 13 18 1016.5 - 0.0
02/12:30pm 18.6 13.7 11.2 62 4.0 WSW 28 39 15 21 1016.8 - 0.0
02/12:00pm 18.7 14.5 12.4 67 3.5 WSW 26 35 14 19 1017.0 - 0.0
02/11:30am 18.6 13.8 11.7 64 3.8 WSW 28 39 15 21 1017.4 1017.4 0.0
02/11:00am 18.4 13.1 11.2 63 3.9 WSW 30 41 16 22 1017.5 - 0.0
02/10:30am 18.3 13.6 11.9 66 3.5 SW 28 39 15 21 1017.5 - 0.0
02/10:00am 18.2 14.1 11.4 64 3.7 SW 24 37 13 20 1017.6 - 0.0
02/09:30am 18.4 14.0 11.8 65 3.6 SW 26 39 14 21 1017.4 - 0.0
02/09:00am 18.0 13.1 12.4 70 3.1 SW 30 39 16 21 1017.2 - 0.0
02/08:30am 18.0 12.9 12.0 68 3.3 WSW 30 44 16 24 1016.7 1016.7 2.8
02/08:00am 17.9 12.6 11.3 65 3.6 WSW 30 46 16 25 1016.6 - 2.8
02/07:30am 17.6 11.5 10.3 62 3.9 WSW 33 48 18 26 1016.4 - 2.8
02/07:00am 17.6 11.1 10.3 62 3.9 WSW 35 48 19 26 1016.1 - 2.6
02/06:30am 17.0 10.6 10.6 66 3.4 WSW 35 46 19 25 1015.6 - 2.6
02/06:00am 16.1 8.6 12.7 80 1.9 WSW 44 57 24 31 1015.2 - 2.6
02/05:30am 17.0 10.1 11.5 70 3.0 WSW 39 48 21 26 1014.7 1014.7 2.6
02/05:00am 17.2 9.3 10.9 66 3.4 WSW 43 54 23 29 1014.3 - 2.6
02/04:30am 17.3 9.3 10.6 64 3.6 WSW 43 52 23 28 1014.1 - 2.6
02/04:00am 17.1 9.2 9.4 60 4.0 WSW 41 52 22 28 1013.7 - 2.6
02/03:30am 17.1 8.7 9.0 59 4.2 WSW 43 54 23 29 1013.4 - 2.6
02/03:00am 17.2 8.3 7.7 53 4.8 WSW 44 57 24 31 1013.2 - 2.6
02/02:30am 17.1 8.9 8.0 55 4.6 WSW 41 54 22 29 1013.1 1013.1 2.6
02/02:00am 17.0 8.6 7.2 52 4.9 WSW 41 52 22 28 1013.4 - 2.6
02/01:30am 17.1 8.3 7.1 51 5.0 WSW 43 57 23 31 1013.5 - 2.6
02/01:00am 17.2 9.0 8.2 55 4.6 WSW 41 52 22 28 1013.4 - 2.6
02/12:30am 17.3 10.5 10.6 64 3.6 WSW 37 52 20 28 1013.2 - 2.6
02/12:00am 17.0 10.2 10.8 67 3.3 WSW 37 46 20 25 1013.3 - 2.6
 
Date/Time
EST
Temp
°C
App
Temp
°C
Dew
Point
Rel
Hum
%
Delta-T
°C
Wind Press
QNH
hPa
Press
MSL
hPa
Rain
since 9 am
mm
Dir
 
Spd
km/h
Gust
km/h
Spd
kts
Gust
kts
01/11:30pm 16.8 9.8 11.4 70 2.9 WSW 39 46 21 25 1013.3 1013.3 2.6
01/11:00pm 16.8 10.3 10.4 66 3.4 W 35 43 19 23 1013.3 - 2.6
01/10:31pm 16.1 11.2 11.3 73 2.6 SW 28 41 15 22 1013.3 - 2.6
01/10:30pm 16.1 11.2 11.3 73 2.6 SW 28 44 15 24 1013.3 - 2.6
01/10:13pm 14.6 8.0 11.2 80 1.8 SW 37 63 20 34 1013.5 - 2.6
01/10:04pm 16.3 8.2 10.0 66 3.3 WSW 43 63 23 34 1013.3 - 2.0
01/10:00pm 17.3 9.5 11.0 66 3.4 WSW 43 50 23 27 1013.3 - 2.0
01/09:30pm 17.1 9.7 9.7 61 3.9 WSW 39 48 21 26 1013.2 - 2.0
01/09:00pm 17.2 10.3 10.2 63 3.7 WSW 37 43 20 23 1013.3 - 2.0
01/08:30pm 17.1 10.5 8.7 57 4.3 WSW 33 43 18 23 1013.1 1013.1 2.0
01/08:00pm 16.8 9.4 9.7 63 3.7 WSW 39 52 21 28 1013.0 - 2.0
01/07:30pm 17.2 9.1 10.2 63 3.7 WSW 43 48 23 26 1013.0 - 2.0
01/07:00pm 17.0 9.5 9.3 60 4.0 WSW 39 46 21 25 1012.7 - 2.0
01/06:30pm 17.0 10.5 10.4 65 3.5 WSW 35 46 19 25 1012.4 - 2.0
01/06:00pm 16.6 12.0 11.0 69 3.0 WSW 26 39 14 21 1012.1 - 2.0
01/05:30pm 15.6 12.7 11.1 74 2.4 SW 17 24 9 13 1011.9 1011.9 2.0
01/05:15pm 15.3 11.1 11.0 75 2.3 SW 24 37 13 20 1011.7 - 2.0
01/05:00pm 14.8 8.1 9.8 72 2.6 WSW 35 63 19 34 1011.7 - 2.0
01/04:56pm 14.6 7.9 11.0 79 1.9 WSW 37 63 20 34 1011.5 - 1.6
01/04:53pm 16.6 10.9 11.8 73 2.6 WSW 33 63 18 34 1011.4 - 0.2
01/04:30pm 17.3 10.8 10.3 63 3.7 WSW 35 43 19 23 1011.3 - 0.0
01/04:00pm 17.7 10.4 10.2 61 4.0 WSW 39 46 21 25 1011.1 - 0.0
01/03:30pm 16.5 11.6 11.3 71 2.8 WSW 28 33 15 18 1011.1 - 0.0
01/03:00pm 16.5 11.0 11.7 73 2.6 SW 32 48 17 26 1011.1 - 0.0
01/02:43pm 17.8 11.0 10.7 63 3.8 WSW 37 63 20 34 1010.7 - 0.0
01/02:30pm 18.2 11.1 9.7 57 4.5 W 37 44 20 24 1010.9 1010.9 0.0
01/02:00pm 18.1 11.9 10.2 60 4.2 WSW 33 43 18 23 1011.0 - 0.0
01/01:30pm 18.2 11.2 10.1 59 4.3 WSW 37 46 20 25 1011.1 - 0.0
01/01:00pm 18.5 12.4 10.3 59 4.4 WSW 33 43 18 23 1011.2 - 0.0
01/12:30pm 18.3 11.8 10.3 59 4.3 WSW 35 41 19 22 1011.6 - 0.0
01/12:00pm 18.0 12.9 11.8 67 3.4 WSW 30 43 16 23 1011.8 - 0.0
01/11:30am 18.0 11.9 9.9 59 4.3 WSW 32 39 17 21 1012.0 1012.0 0.0
01/11:00am 18.7 13.8 11.4 62 4.0 WSW 28 41 15 22 1012.3 - 0.0
01/10:30am 18.3 12.5 10.7 61 4.1 WSW 32 39 17 21 1012.6 - 0.0
01/10:00am 17.9 12.4 10.4 61 4.0 WSW 30 39 16 21 1012.7 - 0.0
01/09:30am 17.6 13.5 11.3 66 3.4 SW 24 33 13 18 1012.7 - 0.0
01/09:00am 17.5 13.1 11.8 69 3.1 WSW 26 35 14 19 1012.6 - 0.0
01/08:30am 16.4 11.8 12.2 76 2.3 SW 28 43 15 23 1012.6 1012.6 3.6
01/08:00am 17.8 12.8 10.9 64 3.7 WSW 28 37 15 20 1012.4 - 3.4
01/07:30am 17.4 12.6 10.2 62 3.8 WSW 26 37 14 20 1012.2 - 3.4
01/07:00am 17.1 13.1 11.8 71 2.9 SW 24 35 13 19 1012.0 - 3.4
01/06:30am 16.9 11.1 10.7 67 3.3 WSW 32 39 17 21 1011.7 - 3.4
01/06:00am 16.6 11.2 10.8 68 3.1 WSW 30 39 16 21 1011.5 - 3.4
01/05:30am 15.4 10.3 11.9 79 1.9 WSW 30 46 16 25 1011.2 1011.2 3.4
01/05:23am 16.7 11.9 11.7 72 2.7 WSW 28 46 15 25 1011.0 - 3.2
01/05:00am 16.8 11.4 10.8 67 3.2 WSW 30 37 16 20 1010.9 - 3.2
01/04:30am 16.5 11.6 11.3 71 2.8 WSW 28 39 15 21 1010.9 - 3.2
01/04:00am 16.1 11.4 11.9 76 2.3 WSW 28 37 15 20 1010.8 - 3.2
01/03:30am 14.9 9.8 10.7 76 2.2 W 28 33 15 18 1010.7 - 3.2
01/03:23am 14.7 9.8 11.3 80 1.8 W 28 33 15 18 1010.8 - 3.2
01/03:00am 13.9 8.0 11.3 84 1.4 WSW 33 63 18 34 1011.1 - 2.0
01/02:57am 14.9 10.2 11.9 82 1.6 WSW 28 61 15 33 1010.9 - 0.6

Other Formats:

Comma delimited format used in spreadsheet applications
http://www.bom.gov.au/fwo/IDN60801/IDN60801.94995.axf

JavaScript Object Notation format (JSON) in row-major order
http://www.bom.gov.au/fwo/IDN60801/IDN60801.94995.json